Upstream stations:
Downstream station:
SHEF ID: BFFO2 Cimarron River near Buffalo, OK
STATION TYPE:
Regulating: Stage = 6.00, Flow = 750
PRECIP STAGE RIV-FLOW BAT-LOAD
in ft cfs volt
Ccp-Rev Ccp-Rev Ccp-Rev Ccp-Rev
(US/Central)
02/05 00:00 0.00 3.52 37 12.81
02/05 01:00 0.00 3.46 30 12.73
02/05 02:00 0.00 3.51 36 12.73
02/05 03:00 0.00 3.48 32 12.73
02/05 04:00 0.00 3.43 27 12.65
02/05 05:00 0.00 3.39 22 12.65
02/05 06:00 0.00 3.29 14 12.65
02/05 07:00 0.00 3.40 23 12.65
02/05 08:00 0.00 3.32 16 12.65
02/05 09:00 0.00 3.27 13 13.44
02/05 10:00 0.00 3.23 10 13.53
02/05 11:00 0.00 3.22 10 13.60
02/05 12:00 0.00 3.12 5 13.76
02/05 13:00 0.00 3.14 6 13.76
02/05 14:00 0.00 3.19 8 13.68
02/05 15:00 0.00 3.19 8 13.60
02/05 16:00 0.00 3.35 19 13.53
02/05 17:00 0.00 3.39 22 13.68
02/05 18:00 0.00 3.37 21 13.44
02/05 19:00 0.00 3.34 18 12.97
02/05 20:00 0.00 3.32 16 12.89
02/05 21:00 0.00 3.31 16 12.81
02/05 22:00 0.00 3.31 16 12.81
02/05 23:00 0.00 3.28 13 12.81